sensor_id;sensor_type;location;lat;lon;timestamp;P1;durP1;ratioP1;P2;durP2;ratioP2
14021;SDS011;7086;48.116;11.580;2023-04-19T00:01:39;8.75;;;6.00;;
14021;SDS011;7086;48.116;11.580;2023-04-19T00:04:06;7.35;;;5.65;;
14021;SDS011;7086;48.116;11.580;2023-04-19T00:06:33;7.13;;;6.30;;
14021;SDS011;7086;48.116;11.580;2023-04-19T00:09:00;6.78;;;6.18;;
14021;SDS011;7086;48.116;11.580;2023-04-19T00:11:27;6.90;;;6.20;;
14021;SDS011;7086;48.116;11.580;2023-04-19T00:13:55;7.85;;;6.97;;
14021;SDS011;7086;48.116;11.580;2023-04-19T00:16:22;8.20;;;7.40;;
14021;SDS011;7086;48.116;11.580;2023-04-19T00:18:49;7.07;;;6.47;;
14021;SDS011;7086;48.116;11.580;2023-04-19T00:21:15;7.60;;;6.85;;
14021;SDS011;7086;48.116;11.580;2023-04-19T00:23:42;7.18;;;6.57;;
14021;SDS011;7086;48.116;11.580;2023-04-19T00:26:09;7.90;;;7.07;;
14021;SDS011;7086;48.116;11.580;2023-04-19T00:28:39;6.78;;;6.18;;
14021;SDS011;7086;48.116;11.580;2023-04-19T00:31:07;7.72;;;6.78;;
14021;SDS011;7086;48.116;11.580;2023-04-19T00:33:35;8.00;;;6.65;;
14021;SDS011;7086;48.116;11.580;2023-04-19T00:36:01;7.80;;;7.00;;
14021;SDS011;7086;48.116;11.580;2023-04-19T00:38:28;7.63;;;6.82;;
14021;SDS011;7086;48.116;11.580;2023-04-19T00:40:55;6.82;;;6.13;;
14021;SDS011;7086;48.116;11.580;2023-04-19T00:43:23;7.78;;;6.82;;
14021;SDS011;7086;48.116;11.580;2023-04-19T00:45:50;8.43;;;7.50;;
14021;SDS011;7086;48.116;11.580;2023-04-19T00:48:18;7.80;;;7.10;;
14021;SDS011;7086;48.116;11.580;2023-04-19T00:50:45;7.18;;;6.15;;
14021;SDS011;7086;48.116;11.580;2023-04-19T00:53:12;8.23;;;7.43;;
14021;SDS011;7086;48.116;11.580;2023-04-19T00:55:39;7.05;;;6.45;;
14021;SDS011;7086;48.116;11.580;2023-04-19T00:58:08;8.38;;;7.60;;
14021;SDS011;7086;48.116;11.580;2023-04-19T01:00:38;7.45;;;6.82;;
14021;SDS011;7086;48.116;11.580;2023-04-19T01:03:05;8.20;;;7.43;;
14021;SDS011;7086;48.116;11.580;2023-04-19T01:05:37;5.63;;;5.13;;
14021;SDS011;7086;48.116;11.580;2023-04-19T01:08:08;8.15;;;6.55;;
14021;SDS011;7086;48.116;11.580;2023-04-19T01:10:42;10.48;;;6.90;;
14021;SDS011;7086;48.116;11.580;2023-04-19T01:13:09;7.40;;;6.70;;
14021;SDS011;7086;48.116;11.580;2023-04-19T01:15:36;8.55;;;7.45;;
14021;SDS011;7086;48.116;11.580;2023-04-19T01:18:06;7.47;;;6.78;;
14021;SDS011;7086;48.116;11.580;2023-04-19T01:20:39;7.07;;;6.47;;
14021;SDS011;7086;48.116;11.580;2023-04-19T01:23:07;7.05;;;6.45;;
14021;SDS011;7086;48.116;11.580;2023-04-19T01:25:36;7.80;;;7.13;;
14021;SDS011;7086;48.116;11.580;2023-04-19T01:28:11;7.65;;;6.90;;
14021;SDS011;7086;48.116;11.580;2023-04-19T01:30:39;7.93;;;7.15;;
14021;SDS011;7086;48.116;11.580;2023-04-19T01:33:07;7.43;;;6.43;;
14021;SDS011;7086;48.116;11.580;2023-04-19T01:35:34;7.70;;;7.10;;
14021;SDS011;7086;48.116;11.580;2023-04-19T01:38:00;8.18;;;7.38;;
14021;SDS011;7086;48.116;11.580;2023-04-19T01:40:28;7.50;;;6.88;;
14021;SDS011;7086;48.116;11.580;2023-04-19T01:42:55;7.05;;;6.45;;
14021;SDS011;7086;48.116;11.580;2023-04-19T01:45:22;6.70;;;6.00;;
14021;SDS011;7086;48.116;11.580;2023-04-19T01:47:49;8.77;;;7.18;;
14021;SDS011;7086;48.116;11.580;2023-04-19T01:50:16;8.50;;;7.60;;
14021;SDS011;7086;48.116;11.580;2023-04-19T01:52:43;8.02;;;7.15;;
14021;SDS011;7086;48.116;11.580;2023-04-19T01:55:10;8.90;;;8.07;;
14021;SDS011;7086;48.116;11.580;2023-04-19T01:57:38;8.90;;;8.10;;
14021;SDS011;7086;48.116;11.580;2023-04-19T02:00:11;7.07;;;6.35;;
14021;SDS011;7086;48.116;11.580;2023-04-19T02:02:39;8.30;;;7.50;;
14021;SDS011;7086;48.116;11.580;2023-04-19T02:05:06;8.68;;;7.80;;
14021;SDS011;7086;48.116;11.580;2023-04-19T02:07:33;8.80;;;7.57;;
14021;SDS011;7086;48.116;11.580;2023-04-19T02:10:00;9.02;;;8.13;;
14021;SDS011;7086;48.116;11.580;2023-04-19T02:12:28;8.02;;;7.22;;
14021;SDS011;7086;48.116;11.580;2023-04-19T02:14:57;9.50;;;8.50;;
14021;SDS011;7086;48.116;11.580;2023-04-19T02:17:24;11.10;;;9.88;;
14021;SDS011;7086;48.116;11.580;2023-04-19T02:19:51;9.27;;;8.30;;
14021;SDS011;7086;48.116;11.580;2023-04-19T02:22:18;9.32;;;8.10;;
14021;SDS011;7086;48.116;11.580;2023-04-19T02:24:45;9.30;;;8.25;;
14021;SDS011;7086;48.116;11.580;2023-04-19T02:27:12;9.32;;;8.43;;
14021;SDS011;7086;48.116;11.580;2023-04-19T02:29:39;10.27;;;8.52;;
14021;SDS011;7086;48.116;11.580;2023-04-19T02:32:07;9.48;;;7.85;;
14021;SDS011;7086;48.116;11.580;2023-04-19T02:34:34;10.35;;;8.95;;
14021;SDS011;7086;48.116;11.580;2023-04-19T02:37:01;8.98;;;8.07;;
14021;SDS011;7086;48.116;11.580;2023-04-19T02:39:28;9.07;;;8.27;;
14021;SDS011;7086;48.116;11.580;2023-04-19T02:41:55;10.32;;;9.32;;
14021;SDS011;7086;48.116;11.580;2023-04-19T02:44:21;9.07;;;8.27;;
14021;SDS011;7086;48.116;11.580;2023-04-19T02:46:48;9.90;;;8.90;;
14021;SDS011;7086;48.116;11.580;2023-04-19T02:49:16;9.93;;;8.60;;
14021;SDS011;7086;48.116;11.580;2023-04-19T02:51:43;11.73;;;9.32;;
14021;SDS011;7086;48.116;11.580;2023-04-19T02:54:10;9.88;;;8.93;;
14021;SDS011;7086;48.116;11.580;2023-04-19T02:56:37;12.02;;;9.40;;
14021;SDS011;7086;48.116;11.580;2023-04-19T02:59:04;9.85;;;8.90;;
14021;SDS011;7086;48.116;11.580;2023-04-19T03:01:31;10.38;;;9.18;;
14021;SDS011;7086;48.116;11.580;2023-04-19T03:03:58;10.10;;;9.10;;
14021;SDS011;7086;48.116;11.580;2023-04-19T03:06:26;10.30;;;9.27;;
14021;SDS011;7086;48.116;11.580;2023-04-19T03:08:53;12.35;;;10.40;;
14021;SDS011;7086;48.116;11.580;2023-04-19T03:11:20;11.30;;;9.70;;
14021;SDS011;7086;48.116;11.580;2023-04-19T03:13:47;10.35;;;9.30;;
14021;SDS011;7086;48.116;11.580;2023-04-19T03:16:13;11.30;;;10.20;;
14021;SDS011;7086;48.116;11.580;2023-04-19T03:18:40;11.18;;;10.07;;
14021;SDS011;7086;48.116;11.580;2023-04-19T03:21:07;11.25;;;10.13;;
14021;SDS011;7086;48.116;11.580;2023-04-19T03:23:35;11.07;;;9.98;;
14021;SDS011;7086;48.116;11.580;2023-04-19T03:26:02;12.43;;;11.13;;
14021;SDS011;7086;48.116;11.580;2023-04-19T03:28:29;11.20;;;9.80;;
14021;SDS011;7086;48.116;11.580;2023-04-19T03:30:56;11.45;;;10.25;;
14021;SDS011;7086;48.116;11.580;2023-04-19T03:33:22;14.05;;;11.10;;
14021;SDS011;7086;48.116;11.580;2023-04-19T03:35:49;11.35;;;10.13;;
14021;SDS011;7086;48.116;11.580;2023-04-19T03:38:16;14.63;;;11.20;;
14021;SDS011;7086;48.116;11.580;2023-04-19T03:40:44;13.50;;;11.43;;
14021;SDS011;7086;48.116;11.580;2023-04-19T03:43:11;13.93;;;12.43;;
14021;SDS011;7086;48.116;11.580;2023-04-19T03:45:38;13.88;;;11.90;;
14021;SDS011;7086;48.116;11.580;2023-04-19T03:48:05;12.38;;;11.10;;
14021;SDS011;7086;48.116;11.580;2023-04-19T03:50:32;13.13;;;11.75;;
14021;SDS011;7086;48.116;11.580;2023-04-19T03:52:59;14.77;;;11.95;;
14021;SDS011;7086;48.116;11.580;2023-04-19T03:55:25;12.75;;;11.45;;
14021;SDS011;7086;48.116;11.580;2023-04-19T03:57:53;15.85;;;13.25;;
14021;SDS011;7086;48.116;11.580;2023-04-19T04:00:20;15.32;;;11.63;;
14021;SDS011;7086;48.116;11.580;2023-04-19T04:02:47;18.75;;;12.15;;
14021;SDS011;7086;48.116;11.580;2023-04-19T04:05:14;18.38;;;12.75;;
14021;SDS011;7086;48.116;11.580;2023-04-19T04:07:41;13.77;;;12.32;;
14021;SDS011;7086;48.116;11.580;2023-04-19T04:10:08;13.30;;;11.57;;
14021;SDS011;7086;48.116;11.580;2023-04-19T04:12:35;15.25;;;13.18;;
14021;SDS011;7086;48.116;11.580;2023-04-19T04:15:03;13.60;;;11.65;;
14021;SDS011;7086;48.116;11.580;2023-04-19T04:17:30;14.02;;;11.90;;
14021;SDS011;7086;48.116;11.580;2023-04-19T04:19:57;16.10;;;12.43;;
14021;SDS011;7086;48.116;11.580;2023-04-19T04:22:24;16.13;;;13.13;;
14021;SDS011;7086;48.116;11.580;2023-04-19T04:24:51;13.23;;;11.77;;
14021;SDS011;7086;48.116;11.580;2023-04-19T04:27:17;18.08;;;12.25;;
14021;SDS011;7086;48.116;11.580;2023-04-19T04:29:45;14.77;;;12.80;;
14021;SDS011;7086;48.116;11.580;2023-04-19T04:32:14;16.00;;;13.55;;
14021;SDS011;7086;48.116;11.580;2023-04-19T04:34:42;13.43;;;11.68;;
14021;SDS011;7086;48.116;11.580;2023-04-19T04:37:09;18.48;;;12.57;;
14021;SDS011;7086;48.116;11.580;2023-04-19T04:39:36;16.52;;;12.32;;
14021;SDS011;7086;48.116;11.580;2023-04-19T04:42:04;17.08;;;14.98;;
14021;SDS011;7086;48.116;11.580;2023-04-19T04:44:32;15.00;;;13.40;;
14021;SDS011;7086;48.116;11.580;2023-04-19T04:46:59;15.68;;;13.50;;
14021;SDS011;7086;48.116;11.580;2023-04-19T04:49:28;17.02;;;13.40;;
14021;SDS011;7086;48.116;11.580;2023-04-19T04:51:55;13.38;;;11.52;;
14021;SDS011;7086;48.116;11.580;2023-04-19T04:54:22;14.52;;;12.57;;
14021;SDS011;7086;48.116;11.580;2023-04-19T04:56:48;15.48;;;13.82;;
14021;SDS011;7086;48.116;11.580;2023-04-19T04:59:15;16.52;;;13.77;;
14021;SDS011;7086;48.116;11.580;2023-04-19T05:01:42;15.10;;;12.95;;
14021;SDS011;7086;48.116;11.580;2023-04-19T05:04:09;18.80;;;14.13;;
14021;SDS011;7086;48.116;11.580;2023-04-19T05:06:37;18.10;;;13.75;;
14021;SDS011;7086;48.116;11.580;2023-04-19T05:09:04;16.05;;;12.73;;
14021;SDS011;7086;48.116;11.580;2023-04-19T05:11:31;17.70;;;13.57;;
14021;SDS011;7086;48.116;11.580;2023-04-19T05:13:58;14.10;;;12.55;;
14021;SDS011;7086;48.116;11.580;2023-04-19T05:16:25;14.32;;;12.05;;
14021;SDS011;7086;48.116;11.580;2023-04-19T05:18:52;16.60;;;13.50;;
14021;SDS011;7086;48.116;11.580;2023-04-19T05:21:19;16.70;;;13.10;;
14021;SDS011;7086;48.116;11.580;2023-04-19T05:23:48;13.18;;;11.77;;
14021;SDS011;7086;48.116;11.580;2023-04-19T05:26:17;19.80;;;15.35;;
14021;SDS011;7086;48.116;11.580;2023-04-19T05:28:44;16.50;;;13.60;;
14021;SDS011;7086;48.116;11.580;2023-04-19T05:31:13;15.07;;;13.48;;
14021;SDS011;7086;48.116;11.580;2023-04-19T05:33:40;13.25;;;11.45;;
14021;SDS011;7086;48.116;11.580;2023-04-19T05:36:07;16.95;;;13.73;;
14021;SDS011;7086;48.116;11.580;2023-04-19T05:38:34;15.07;;;12.25;;
14021;SDS011;7086;48.116;11.580;2023-04-19T05:41:02;16.85;;;13.90;;
14021;SDS011;7086;48.116;11.580;2023-04-19T05:43:29;16.73;;;13.20;;
14021;SDS011;7086;48.116;11.580;2023-04-19T05:45:56;15.70;;;13.15;;
14021;SDS011;7086;48.116;11.580;2023-04-19T05:48:23;14.65;;;12.43;;
14021;SDS011;7086;48.116;11.580;2023-04-19T05:50:50;16.15;;;12.30;;
14021;SDS011;7086;48.116;11.580;2023-04-19T05:53:19;17.95;;;13.88;;
14021;SDS011;7086;48.116;11.580;2023-04-19T05:55:45;22.75;;;14.63;;
14021;SDS011;7086;48.116;11.580;2023-04-19T05:58:16;18.20;;;15.48;;
14021;SDS011;7086;48.116;11.580;2023-04-19T06:00:43;18.15;;;13.60;;
14021;SDS011;7086;48.116;11.580;2023-04-19T06:03:10;13.30;;;11.88;;
14021;SDS011;7086;48.116;11.580;2023-04-19T06:05:36;18.95;;;13.07;;
14021;SDS011;7086;48.116;11.580;2023-04-19T06:08:04;16.08;;;12.77;;
14021;SDS011;7086;48.116;11.580;2023-04-19T06:10:31;18.73;;;13.55;;
14021;SDS011;7086;48.116;11.580;2023-04-19T06:12:58;16.13;;;13.25;;
14021;SDS011;7086;48.116;11.580;2023-04-19T06:15:26;13.07;;;11.05;;
14021;SDS011;7086;48.116;11.580;2023-04-19T06:17:52;16.30;;;12.85;;
14021;SDS011;7086;48.116;11.580;2023-04-19T06:20:19;20.02;;;13.57;;
14021;SDS011;7086;48.116;11.580;2023-04-19T06:22:47;16.83;;;12.55;;
14021;SDS011;7086;48.116;11.580;2023-04-19T06:25:14;17.23;;;13.18;;
14021;SDS011;7086;48.116;11.580;2023-04-19T06:27:41;14.65;;;12.18;;
14021;SDS011;7086;48.116;11.580;2023-04-19T06:30:08;17.00;;;13.93;;
14021;SDS011;7086;48.116;11.580;2023-04-19T06:32:36;18.30;;;13.02;;
14021;SDS011;7086;48.116;11.580;2023-04-19T06:35:04;16.00;;;12.45;;
14021;SDS011;7086;48.116;11.580;2023-04-19T06:37:32;17.20;;;12.40;;
14021;SDS011;7086;48.116;11.580;2023-04-19T06:39:58;19.60;;;14.20;;
14021;SDS011;7086;48.116;11.580;2023-04-19T06:42:25;17.05;;;13.15;;
14021;SDS011;7086;48.116;11.580;2023-04-19T06:44:53;15.75;;;13.40;;
14021;SDS011;7086;48.116;11.580;2023-04-19T06:47:21;16.13;;;12.18;;
14021;SDS011;7086;48.116;11.580;2023-04-19T06:49:49;14.32;;;12.30;;
14021;SDS011;7086;48.116;11.580;2023-04-19T06:52:16;17.88;;;13.35;;
14021;SDS011;7086;48.116;11.580;2023-04-19T06:54:45;15.80;;;12.93;;
14021;SDS011;7086;48.116;11.580;2023-04-19T06:57:13;14.75;;;12.55;;
14021;SDS011;7086;48.116;11.580;2023-04-19T06:59:40;17.17;;;13.35;;
14021;SDS011;7086;48.116;11.580;2023-04-19T07:02:07;18.40;;;14.90;;
14021;SDS011;7086;48.116;11.580;2023-04-19T07:04:34;16.52;;;12.48;;
14021;SDS011;7086;48.116;11.580;2023-04-19T07:07:03;13.77;;;11.90;;
14021;SDS011;7086;48.116;11.580;2023-04-19T07:09:29;18.83;;;13.48;;
14021;SDS011;7086;48.116;11.580;2023-04-19T07:11:56;17.83;;;13.48;;
14021;SDS011;7086;48.116;11.580;2023-04-19T07:14:23;15.50;;;11.55;;
14021;SDS011;7086;48.116;11.580;2023-04-19T07:16:50;15.50;;;12.30;;
14021;SDS011;7086;48.116;11.580;2023-04-19T07:19:17;17.85;;;14.05;;
14021;SDS011;7086;48.116;11.580;2023-04-19T07:21:45;18.85;;;13.23;;
14021;SDS011;7086;48.116;11.580;2023-04-19T07:24:13;17.40;;;12.02;;
14021;SDS011;7086;48.116;11.580;2023-04-19T07:26:40;18.45;;;12.52;;
14021;SDS011;7086;48.116;11.580;2023-04-19T07:29:07;18.20;;;12.55;;
14021;SDS011;7086;48.116;11.580;2023-04-19T07:31:33;18.92;;;12.80;;
14021;SDS011;7086;48.116;11.580;2023-04-19T07:34:00;17.48;;;12.82;;
14021;SDS011;7086;48.116;11.580;2023-04-19T07:36:27;12.60;;;10.95;;
14021;SDS011;7086;48.116;11.580;2023-04-19T07:38:55;19.33;;;13.02;;
14021;SDS011;7086;48.116;11.580;2023-04-19T07:41:24;16.02;;;11.07;;
14021;SDS011;7086;48.116;11.580;2023-04-19T07:43:50;17.95;;;12.93;;
14021;SDS011;7086;48.116;11.580;2023-04-19T07:46:17;17.83;;;14.18;;
14021;SDS011;7086;48.116;11.580;2023-04-19T07:48:44;15.38;;;12.55;;
14021;SDS011;7086;48.116;11.580;2023-04-19T07:51:11;18.38;;;13.45;;
14021;SDS011;7086;48.116;11.580;2023-04-19T07:53:39;16.20;;;11.80;;
14021;SDS011;7086;48.116;11.580;2023-04-19T07:56:07;18.63;;;14.32;;
14021;SDS011;7086;48.116;11.580;2023-04-19T07:58:36;14.15;;;12.07;;
14021;SDS011;7086;48.116;11.580;2023-04-19T08:01:05;15.10;;;11.63;;
14021;SDS011;7086;48.116;11.580;2023-04-19T08:03:32;13.48;;;11.40;;
14021;SDS011;7086;48.116;11.580;2023-04-19T08:06:00;15.63;;;12.07;;
14021;SDS011;7086;48.116;11.580;2023-04-19T08:08:29;14.93;;;11.60;;
14021;SDS011;7086;48.116;11.580;2023-04-19T08:10:56;17.15;;;12.43;;
14021;SDS011;7086;48.116;11.580;2023-04-19T08:13:22;14.15;;;11.60;;
14021;SDS011;7086;48.116;11.580;2023-04-19T08:15:51;13.77;;;11.07;;
14021;SDS011;7086;48.116;11.580;2023-04-19T08:18:17;14.57;;;12.05;;
14021;SDS011;7086;48.116;11.580;2023-04-19T08:20:45;14.85;;;12.38;;
14021;SDS011;7086;48.116;11.580;2023-04-19T08:23:11;17.17;;;12.60;;
14021;SDS011;7086;48.116;11.580;2023-04-19T08:25:38;16.75;;;11.45;;
14021;SDS011;7086;48.116;11.580;2023-04-19T08:28:05;13.98;;;12.52;;
14021;SDS011;7086;48.116;11.580;2023-04-19T08:30:35;13.52;;;11.90;;
14021;SDS011;7086;48.116;11.580;2023-04-19T08:33:03;11.40;;;10.20;;
14021;SDS011;7086;48.116;11.580;2023-04-19T08:35:30;11.48;;;10.27;;
14021;SDS011;7086;48.116;11.580;2023-04-19T08:37:57;15.05;;;11.43;;
14021;SDS011;7086;48.116;11.580;2023-04-19T08:40:24;11.93;;;10.65;;
14021;SDS011;7086;48.116;11.580;2023-04-19T08:42:50;11.63;;;10.23;;
14021;SDS011;7086;48.116;11.580;2023-04-19T08:45:17;12.52;;;11.23;;
14021;SDS011;7086;48.116;11.580;2023-04-19T08:47:46;13.68;;;11.75;;
14021;SDS011;7086;48.116;11.580;2023-04-19T08:50:15;13.35;;;11.50;;
14021;SDS011;7086;48.116;11.580;2023-04-19T08:52:45;14.02;;;11.73;;
14021;SDS011;7086;48.116;11.580;2023-04-19T08:55:13;12.98;;;11.70;;
14021;SDS011;7086;48.116;11.580;2023-04-19T08:57:42;15.10;;;12.45;;
14021;SDS011;7086;48.116;11.580;2023-04-19T09:00:09;14.15;;;12.75;;
14021;SDS011;7086;48.116;11.580;2023-04-19T09:02:46;14.45;;;12.95;;
14021;SDS011;7086;48.116;11.580;2023-04-19T09:05:14;15.55;;;13.38;;
14021;SDS011;7086;48.116;11.580;2023-04-19T09:07:43;14.38;;;12.90;;
14021;SDS011;7086;48.116;11.580;2023-04-19T09:10:10;15.60;;;13.82;;
14021;SDS011;7086;48.116;11.580;2023-04-19T09:12:38;13.40;;;12.00;;
14021;SDS011;7086;48.116;11.580;2023-04-19T09:15:07;15.88;;;13.07;;
14021;SDS011;7086;48.116;11.580;2023-04-19T09:17:35;15.60;;;12.65;;
14021;SDS011;7086;48.116;11.580;2023-04-19T09:20:03;13.50;;;11.57;;
14021;SDS011;7086;48.116;11.580;2023-04-19T09:22:32;13.15;;;11.60;;
14021;SDS011;7086;48.116;11.580;2023-04-19T09:24:59;15.70;;;13.20;;
14021;SDS011;7086;48.116;11.580;2023-04-19T09:27:27;14.18;;;11.95;;
14021;SDS011;7086;48.116;11.580;2023-04-19T09:29:55;13.73;;;12.23;;
14021;SDS011;7086;48.116;11.580;2023-04-19T09:32:23;14.63;;;13.07;;
14021;SDS011;7086;48.116;11.580;2023-04-19T09:34:51;15.48;;;12.55;;
14021;SDS011;7086;48.116;11.580;2023-04-19T09:37:20;15.45;;;13.10;;
14021;SDS011;7086;48.116;11.580;2023-04-19T09:39:48;15.95;;;13.50;;
14021;SDS011;7086;48.116;11.580;2023-04-19T09:42:15;13.02;;;11.68;;
14021;SDS011;7086;48.116;11.580;2023-04-19T09:47:26;13.52;;;12.13;;
14021;SDS011;7086;48.116;11.580;2023-04-19T09:50:06;12.93;;;11.55;;
14021;SDS011;7086;48.116;11.580;2023-04-19T09:52:34;13.52;;;12.13;;
14021;SDS011;7086;48.116;11.580;2023-04-19T09:55:03;13.25;;;11.05;;
14021;SDS011;7086;48.116;11.580;2023-04-19T09:57:32;12.68;;;11.38;;
14021;SDS011;7086;48.116;11.580;2023-04-19T10:00:00;12.95;;;11.48;;
14021;SDS011;7086;48.116;11.580;2023-04-19T10:02:31;13.20;;;11.02;;
14021;SDS011;7086;48.116;11.580;2023-04-19T10:04:59;13.05;;;10.65;;
14021;SDS011;7086;48.116;11.580;2023-04-19T10:07:26;12.23;;;10.88;;
14021;SDS011;7086;48.116;11.580;2023-04-19T10:09:54;11.98;;;10.77;;
14021;SDS011;7086;48.116;11.580;2023-04-19T10:12:24;11.32;;;10.13;;
14021;SDS011;7086;48.116;11.580;2023-04-19T10:14:53;11.73;;;10.20;;
14021;SDS011;7086;48.116;11.580;2023-04-19T10:17:22;10.77;;;9.73;;
14021;SDS011;7086;48.116;11.580;2023-04-19T10:19:51;10.65;;;9.75;;
14021;SDS011;7086;48.116;11.580;2023-04-19T10:22:23;13.23;;;10.27;;
14021;SDS011;7086;48.116;11.580;2023-04-19T10:27:38;13.10;;;10.32;;
14021;SDS011;7086;48.116;11.580;2023-04-19T10:30:06;11.48;;;10.23;;
14021;SDS011;7086;48.116;11.580;2023-04-19T10:32:43;11.50;;;10.27;;
14021;SDS011;7086;48.116;11.580;2023-04-19T10:35:16;11.40;;;10.23;;
14021;SDS011;7086;48.116;11.580;2023-04-19T10:43:23;10.27;;;9.30;;
14021;SDS011;7086;48.116;11.580;2023-04-19T10:45:51;11.70;;;10.50;;
14021;SDS011;7086;48.116;11.580;2023-04-19T10:48:31;11.07;;;10.02;;
14021;SDS011;7086;48.116;11.580;2023-04-19T10:51:03;11.30;;;9.60;;
14021;SDS011;7086;48.116;11.580;2023-04-19T10:53:42;11.13;;;9.82;;
14021;SDS011;7086;48.116;11.580;2023-04-19T10:56:14;10.40;;;9.43;;
14021;SDS011;7086;48.116;11.580;2023-04-19T11:01:49;11.43;;;10.32;;
14021;SDS011;7086;48.116;11.580;2023-04-19T11:04:18;11.70;;;10.20;;
14021;SDS011;7086;48.116;11.580;2023-04-19T11:06:58;12.10;;;10.85;;
14021;SDS011;7086;48.116;11.580;2023-04-19T11:09:28;11.30;;;10.25;;
14021;SDS011;7086;48.116;11.580;2023-04-19T11:11:59;10.30;;;8.88;;
14021;SDS011;7086;48.116;11.580;2023-04-19T11:14:30;12.20;;;11.00;;
14021;SDS011;7086;48.116;11.580;2023-04-19T11:16:58;16.70;;;11.20;;
14021;SDS011;7086;48.116;11.580;2023-04-19T11:19:25;12.50;;;11.25;;
14021;SDS011;7086;48.116;11.580;2023-04-19T11:21:52;10.15;;;9.23;;
14021;SDS011;7086;48.116;11.580;2023-04-19T11:24:24;11.55;;;10.35;;
14021;SDS011;7086;48.116;11.580;2023-04-19T11:26:51;10.90;;;9.85;;
14021;SDS011;7086;48.116;11.580;2023-04-19T11:29:18;10.98;;;9.88;;
14021;SDS011;7086;48.116;11.580;2023-04-19T11:31:48;10.82;;;9.88;;
14021;SDS011;7086;48.116;11.580;2023-04-19T11:34:15;10.85;;;9.65;;
14021;SDS011;7086;48.116;11.580;2023-04-19T11:36:46;11.23;;;10.23;;
14021;SDS011;7086;48.116;11.580;2023-04-19T11:39:17;11.82;;;10.60;;
14021;SDS011;7086;48.116;11.580;2023-04-19T11:41:44;11.70;;;10.60;;
14021;SDS011;7086;48.116;11.580;2023-04-19T11:44:12;11.48;;;10.38;;
14021;SDS011;7086;48.116;11.580;2023-04-19T11:46:39;12.50;;;11.30;;
14021;SDS011;7086;48.116;11.580;2023-04-19T11:49:08;12.98;;;11.40;;
14021;SDS011;7086;48.116;11.580;2023-04-19T11:51:40;15.65;;;12.10;;
14021;SDS011;7086;48.116;11.580;2023-04-19T11:54:11;12.20;;;10.27;;
14021;SDS011;7086;48.116;11.580;2023-04-19T11:59:22;11.82;;;9.30;;
14021;SDS011;7086;48.116;11.580;2023-04-19T12:01:49;11.80;;;9.57;;
14021;SDS011;7086;48.116;11.580;2023-04-19T12:04:17;11.95;;;10.57;;
14021;SDS011;7086;48.116;11.580;2023-04-19T12:06:45;11.32;;;10.10;;
14021;SDS011;7086;48.116;11.580;2023-04-19T12:09:21;13.38;;;10.18;;
14021;SDS011;7086;48.116;11.580;2023-04-19T12:11:48;11.55;;;10.32;;
14021;SDS011;7086;48.116;11.580;2023-04-19T12:14:16;14.00;;;11.30;;
14021;SDS011;7086;48.116;11.580;2023-04-19T12:16:45;14.30;;;10.05;;
14021;SDS011;7086;48.116;11.580;2023-04-19T12:19:33;12.60;;;10.93;;
14021;SDS011;7086;48.116;11.580;2023-04-19T12:22:06;15.88;;;11.63;;
14021;SDS011;7086;48.116;11.580;2023-04-19T12:24:33;15.32;;;12.13;;
14021;SDS011;7086;48.116;11.580;2023-04-19T12:27:00;13.63;;;11.32;;
14021;SDS011;7086;48.116;11.580;2023-04-19T12:29:27;13.27;;;10.45;;
14021;SDS011;7086;48.116;11.580;2023-04-19T12:31:53;16.10;;;12.02;;
14021;SDS011;7086;48.116;11.580;2023-04-19T12:34:20;11.27;;;10.10;;
14021;SDS011;7086;48.116;11.580;2023-04-19T12:36:48;15.48;;;10.25;;
14021;SDS011;7086;48.116;11.580;2023-04-19T12:39:15;12.70;;;11.05;;
14021;SDS011;7086;48.116;11.580;2023-04-19T12:41:41;12.10;;;10.50;;
14021;SDS011;7086;48.116;11.580;2023-04-19T12:44:08;14.88;;;11.48;;
14021;SDS011;7086;48.116;11.580;2023-04-19T12:46:35;10.63;;;9.55;;
14021;SDS011;7086;48.116;11.580;2023-04-19T12:49:02;12.35;;;10.63;;
14021;SDS011;7086;48.116;11.580;2023-04-19T12:51:28;10.70;;;8.18;;
14021;SDS011;7086;48.116;11.580;2023-04-19T12:53:57;8.43;;;7.57;;
14021;SDS011;7086;48.116;11.580;2023-04-19T12:56:24;9.88;;;7.30;;
14021;SDS011;7086;48.116;11.580;2023-04-19T12:58:50;9.65;;;6.97;;
14021;SDS011;7086;48.116;11.580;2023-04-19T13:01:18;6.90;;;5.82;;
14021;SDS011;7086;48.116;11.580;2023-04-19T13:03:44;8.07;;;7.03;;
14021;SDS011;7086;48.116;11.580;2023-04-19T13:06:11;8.38;;;7.28;;
14021;SDS011;7086;48.116;11.580;2023-04-19T13:08:39;9.85;;;7.60;;
14021;SDS011;7086;48.116;11.580;2023-04-19T13:11:08;7.40;;;6.70;;
14021;SDS011;7086;48.116;11.580;2023-04-19T13:13:34;6.63;;;6.03;;
14021;SDS011;7086;48.116;11.580;2023-04-19T13:16:01;7.18;;;6.50;;
14021;SDS011;7086;48.116;11.580;2023-04-19T13:18:28;6.78;;;6.15;;
14021;SDS011;7086;48.116;11.580;2023-04-19T13:20:55;6.15;;;5.63;;
14021;SDS011;7086;48.116;11.580;2023-04-19T13:23:21;6.50;;;5.90;;
14021;SDS011;7086;48.116;11.580;2023-04-19T13:25:48;7.47;;;5.90;;
14021;SDS011;7086;48.116;11.580;2023-04-19T13:28:16;7.40;;;6.70;;
14021;SDS011;7086;48.116;11.580;2023-04-19T13:30:43;6.53;;;5.82;;
14021;SDS011;7086;48.116;11.580;2023-04-19T13:33:10;6.20;;;5.60;;
14021;SDS011;7086;48.116;11.580;2023-04-19T13:35:36;6.93;;;5.38;;
14021;SDS011;7086;48.116;11.580;2023-04-19T13:38:03;6.20;;;5.60;;
14021;SDS011;7086;48.116;11.580;2023-04-19T13:40:30;6.35;;;5.45;;
14021;SDS011;7086;48.116;11.580;2023-04-19T13:42:56;7.60;;;6.80;;
14021;SDS011;7086;48.116;11.580;2023-04-19T13:45:25;7.20;;;6.45;;
14021;SDS011;7086;48.116;11.580;2023-04-19T13:47:51;7.32;;;6.45;;
14021;SDS011;7086;48.116;11.580;2023-04-19T13:50:19;5.32;;;4.93;;
14021;SDS011;7086;48.116;11.580;2023-04-19T13:52:46;5.43;;;4.90;;
14021;SDS011;7086;48.116;11.580;2023-04-19T13:55:12;5.32;;;4.82;;
14021;SDS011;7086;48.116;11.580;2023-04-19T13:57:39;5.40;;;4.90;;
14021;SDS011;7086;48.116;11.580;2023-04-19T14:00:07;4.93;;;4.40;;
14021;SDS011;7086;48.116;11.580;2023-04-19T14:02:36;5.55;;;4.97;;
14021;SDS011;7086;48.116;11.580;2023-04-19T14:05:03;3.80;;;3.58;;
14021;SDS011;7086;48.116;11.580;2023-04-19T14:07:31;3.00;;;2.80;;
14021;SDS011;7086;48.116;11.580;2023-04-19T14:09:58;3.72;;;2.90;;
14021;SDS011;7086;48.116;11.580;2023-04-19T14:12:25;3.58;;;3.28;;
14021;SDS011;7086;48.116;11.580;2023-04-19T14:14:51;3.45;;;3.25;;
14021;SDS011;7086;48.116;11.580;2023-04-19T14:17:19;4.88;;;3.58;;
14021;SDS011;7086;48.116;11.580;2023-04-19T14:19:47;3.28;;;3.08;;
14021;SDS011;7086;48.116;11.580;2023-04-19T14:22:15;2.63;;;2.42;;
14021;SDS011;7086;48.116;11.580;2023-04-19T14:24:41;2.35;;;2.22;;
14021;SDS011;7086;48.116;11.580;2023-04-19T14:27:09;2.20;;;2.00;;
14021;SDS011;7086;48.116;11.580;2023-04-19T14:29:37;2.28;;;2.10;;
14021;SDS011;7086;48.116;11.580;2023-04-19T14:32:03;2.25;;;2.15;;
14021;SDS011;7086;48.116;11.580;2023-04-19T14:34:30;3.58;;;3.05;;
14021;SDS011;7086;48.116;11.580;2023-04-19T14:36:59;2.97;;;2.78;;
14021;SDS011;7086;48.116;11.580;2023-04-19T14:39:26;2.53;;;2.42;;
14021;SDS011;7086;48.116;11.580;2023-04-19T14:41:53;3.13;;;2.88;;
14021;SDS011;7086;48.116;11.580;2023-04-19T14:44:21;3.90;;;3.53;;
14021;SDS011;7086;48.116;11.580;2023-04-19T14:46:48;5.07;;;3.50;;
14021;SDS011;7086;48.116;11.580;2023-04-19T14:49:15;3.72;;;3.53;;
14021;SDS011;7086;48.116;11.580;2023-04-19T14:51:42;4.15;;;3.85;;